Terminal Aerodrome Forecast
Issued by NWS Blacksburg, VA

Home | Current Version | Previous Version | Text Only | Print | Product List | Glossary On
Versions: 1 2 3 4 5 6 7 8 9 10 11 12 13 14 15 16 17 18 19 20 21 22 23 24 25 26 27 28
000
FTUS41 KRNK 301126
TAFLYH
TAF
KLYH 301126Z 3012/3112 00000KT P6SM BKN050
     FM301400 VRB03KT P6SM SCT050
     FM301700 22006KT P6SM SCT060 SCT150
     FM302100 23004KT P6SM BKN060 BKN120
     FM310800 00000KT 4SM BR SCT100=

USA.gov is the U.S. government's official web portal to all federal, state and local government web resources and services.